Time,TemperatureF,DewpointF,PressureIn,WindDirection,WindDirectionDegrees,WindSpeedMPH,WindSpeedGustMPH,Humidity,HourlyPrecipIn,Conditions,Clouds,dailyrainin,SoftwareType,DateUTC
2013-06-26 00:06:00,68.1,66.0,29.88,WSW,250,0.0,0.0,94,0.00,,,0.00,weatherlink.com 1.10,2013-06-26 04:06:00,
2013-06-26 00:21:00,68.0,67.0,29.89,WNW,286,2.0,5.0,95,0.00,,,0.00,weatherlink.com 1.10,2013-06-26 04:21:00,
2013-06-26 00:36:00,67.9,67.0,29.88,WNW,287,0.0,1.0,95,0.00,,,0.00,weatherlink.com 1.10,2013-06-26 04:36:00,
2013-06-26 00:51:00,67.6,66.0,29.87,WNW,287,0.0,1.0,95,0.00,,,0.00,weatherlink.com 1.10,2013-06-26 04:51:00,
2013-06-26 01:06:00,67.4,66.0,29.88,WNW,287,0.0,1.0,96,0.00,,,0.00,weatherlink.com 1.10,2013-06-26 05:06:00,
2013-06-26 01:21:00,67.2,66.0,29.87,WNW,287,0.0,1.0,96,0.00,,,0.00,weatherlink.com 1.10,2013-06-26 05:21:00,
2013-06-26 01:36:00,67.0,66.0,29.87,WNW,287,0.0,0.0,96,0.00,,,0.00,weatherlink.com 1.10,2013-06-26 05:36:00,
2013-06-26 01:51:00,67.3,66.0,29.87,WNW,287,0.0,1.0,96,0.00,,,0.00,weatherlink.com 1.10,2013-06-26 05:51:00,
2013-06-26 02:06:00,67.3,67.0,29.88,WNW,287,0.0,1.0,97,0.00,,,0.00,weatherlink.com 1.10,2013-06-26 06:06:00,
2013-06-26 02:21:00,67.3,67.0,29.87,WNW,287,0.0,1.0,97,0.00,,,0.00,weatherlink.com 1.10,2013-06-26 06:21:00,
2013-06-26 02:36:00,67.2,66.0,29.88,WNW,287,0.0,1.0,97,0.00,,,0.00,weatherlink.com 1.10,2013-06-26 06:36:00,
2013-06-26 02:51:00,67.1,66.0,29.87,WNW,287,0.0,4.0,97,0.00,,,0.00,weatherlink.com 1.10,2013-06-26 06:51:00,
2013-06-26 03:06:00,66.9,66.0,29.87,WNW,287,0.0,2.0,97,0.00,,,0.00,weatherlink.com 1.10,2013-06-26 07:06:00,
2013-06-26 03:21:00,66.8,66.0,29.87,WNW,286,0.0,1.0,97,0.00,,,0.00,weatherlink.com 1.10,2013-06-26 07:21:00,
2013-06-26 03:36:00,66.7,66.0,29.87,WNW,286,0.0,1.0,97,0.00,,,0.00,weatherlink.com 1.10,2013-06-26 07:36:00,
2013-06-26 03:51:00,66.4,66.0,29.87,WNW,286,0.0,0.0,97,0.00,,,0.00,weatherlink.com 1.10,2013-06-26 07:51:00,
2013-06-26 04:06:00,66.1,65.0,29.87,WNW,286,0.0,1.0,97,0.00,,,0.00,weatherlink.com 1.10,2013-06-26 08:06:00,
2013-06-26 04:21:00,65.8,65.0,29.86,WNW,286,0.0,1.0,97,0.00,,,0.00,weatherlink.com 1.10,2013-06-26 08:21:00,
2013-06-26 04:36:00,65.7,65.0,29.86,WNW,286,0.0,1.0,97,0.00,,,0.00,weatherlink.com 1.10,2013-06-26 08:36:00,
2013-06-26 04:51:00,65.5,65.0,29.87,WNW,286,0.0,2.0,97,0.00,,,0.00,weatherlink.com 1.10,2013-06-26 08:51:00,
2013-06-26 05:06:00,65.4,65.0,29.87,WNW,286,0.0,0.0,97,0.00,,,0.00,weatherlink.com 1.10,2013-06-26 09:06:00,
2013-06-26 05:21:00,65.2,64.0,29.87,WNW,286,0.0,1.0,97,0.00,,,0.00,weatherlink.com 1.10,2013-06-26 09:21:00,
2013-06-26 05:36:00,65.1,64.0,29.86,WNW,286,0.0,0.0,97,0.00,,,0.00,weatherlink.com 1.10,2013-06-26 09:36:00,
2013-06-26 05:51:00,65.0,65.0,29.86,WNW,286,0.0,1.0,98,0.00,,,0.00,weatherlink.com 1.10,2013-06-26 09:51:00,
2013-06-26 06:06:00,64.9,64.0,29.86,WNW,286,0.0,0.0,98,0.00,,,0.00,weatherlink.com 1.10,2013-06-26 10:06:00,
2013-06-26 06:22:00,65.0,65.0,29.86,WNW,286,0.0,0.0,98,0.00,,,0.00,weatherlink.com 1.10,2013-06-26 10:22:00,
2013-06-26 06:37:00,65.2,65.0,29.86,WNW,286,0.0,1.0,98,0.00,,,0.00,weatherlink.com 1.10,2013-06-26 10:37:00,
2013-06-26 06:52:00,66.0,66.0,29.87,WNW,286,0.0,0.0,98,0.00,,,0.00,weatherlink.com 1.10,2013-06-26 10:52:00,
2013-06-26 07:07:00,67.1,67.0,29.87,WNW,286,0.0,0.0,98,0.00,,,0.00,weatherlink.com 1.10,2013-06-26 11:07:00,
2013-06-26 07:22:00,68.1,68.0,29.86,WNW,286,1.0,5.0,99,0.00,,,0.00,weatherlink.com 1.10,2013-06-26 11:22:00,
2013-06-26 07:37:00,68.2,68.0,29.88,WNW,286,0.0,4.0,98,0.00,,,0.00,weatherlink.com 1.10,2013-06-26 11:37:00,
2013-06-26 07:52:00,69.3,69.0,29.88,WNW,286,2.0,5.0,98,0.00,,,0.00,weatherlink.com 1.10,2013-06-26 11:52:00,
2013-06-26 08:07:00,70.0,68.0,29.87,West,276,0.0,5.0,94,0.00,,,0.00,weatherlink.com 1.10,2013-06-26 12:07:00,
2013-06-26 08:22:00,70.8,68.0,29.87,West,276,0.0,2.0,91,0.00,,,0.00,weatherlink.com 1.10,2013-06-26 12:22:00,
2013-06-26 08:37:00,71.6,69.0,29.87,West,276,0.0,1.0,90,0.00,,,0.00,weatherlink.com 1.10,2013-06-26 12:37:00,
2013-06-26 08:52:00,72.3,68.0,29.87,West,276,0.0,1.0,87,0.00,,,0.00,weatherlink.com 1.10,2013-06-26 12:52:00,
2013-06-26 09:07:00,73.0,68.0,29.87,West,276,0.0,2.0,84,0.00,,,0.00,weatherlink.com 1.10,2013-06-26 13:07:00,
2013-06-26 09:22:00,73.6,69.0,29.87,West,276,0.0,4.0,84,0.00,,,0.00,weatherlink.com 1.10,2013-06-26 13:22:00,
2013-06-26 09:37:00,75.0,68.0,29.86,West,276,1.0,2.0,80,0.00,,,0.00,weatherlink.com 1.10,2013-06-26 13:37:00,
2013-06-26 09:52:00,77.2,70.0,29.86,SSW,202,4.0,6.0,77,0.00,,,0.00,weatherlink.com 1.10,2013-06-26 13:52:00,
2013-06-26 10:07:00,78.3,69.0,29.86,NW,306,0.0,5.0,74,0.00,,,0.00,weatherlink.com 1.10,2013-06-26 14:07:00,
2013-06-26 10:22:00,78.7,69.0,29.85,South,171,0.0,5.0,71,0.00,,,0.00,weatherlink.com 1.10,2013-06-26 14:22:00,
2013-06-26 10:37:00,79.1,70.0,29.84,South,171,0.0,0.0,73,0.00,,,0.00,weatherlink.com 1.10,2013-06-26 14:37:00,
2013-06-26 10:52:00,79.5,70.0,29.84,South,178,0.0,4.0,73,0.00,,,0.00,weatherlink.com 1.10,2013-06-26 14:52:00,
2013-06-26 11:07:00,79.5,69.0,29.84,SW,220,0.0,4.0,70,0.00,,,0.00,weatherlink.com 1.10,2013-06-26 15:07:00,
2013-06-26 11:23:00,80.7,71.0,29.86,NW,315,0.0,4.0,71,0.00,,,0.00,weatherlink.com 1.10,2013-06-26 15:23:00,
2013-06-26 11:38:00,80.9,69.0,29.86,NNW,328,0.0,5.0,68,0.00,,,0.00,weatherlink.com 1.10,2013-06-26 15:38:00,
2013-06-26 11:53:00,80.7,71.0,29.86,West,268,0.0,4.0,72,0.00,,,0.00,weatherlink.com 1.10,2013-06-26 15:53:00,
2013-06-26 12:08:00,81.1,71.0,29.87,WNW,284,0.0,4.0,71,0.00,,,0.00,weatherlink.com 1.10,2013-06-26 16:08:00,
2013-06-26 12:23:00,82.7,71.0,29.86,WNW,297,1.0,5.0,67,0.00,,,0.00,weatherlink.com 1.10,2013-06-26 16:23:00,
2013-06-26 12:38:00,82.7,70.0,29.87,West,260,0.0,6.0,65,0.00,,,0.00,weatherlink.com 1.10,2013-06-26 16:38:00,
2013-06-26 12:53:00,82.8,70.0,29.86,SSW,192,0.0,6.0,66,0.00,,,0.00,weatherlink.com 1.10,2013-06-26 16:53:00,
2013-06-26 13:08:00,83.0,71.0,29.86,WSW,240,2.0,3.0,67,0.00,,,0.00,weatherlink.com 1.10,2013-06-26 17:08:00,
2013-06-26 13:23:00,85.0,71.0,29.86,NNW,333,3.0,4.0,64,0.00,,,0.00,weatherlink.com 1.10,2013-06-26 17:23:00,
2013-06-26 13:38:00,85.4,71.0,29.85,NE,51,0.0,5.0,63,0.00,,,0.00,weatherlink.com 1.10,2013-06-26 17:38:00,
2013-06-26 13:53:00,85.6,71.0,29.85,NW,321,5.0,9.0,62,0.00,,,0.00,weatherlink.com 1.10,2013-06-26 17:53:00,
2013-06-26 14:08:00,85.2,73.0,29.85,NW,316,1.0,7.0,66,0.00,,,0.00,weatherlink.com 1.10,2013-06-26 18:08:00,
2013-06-26 14:23:00,86.3,72.0,29.84,WNW,292,0.0,8.0,62,0.00,,,0.00,weatherlink.com 1.10,2013-06-26 18:23:00,
2013-06-26 14:38:00,86.2,72.0,29.84,WNW,292,4.0,7.0,62,0.00,,,0.00,weatherlink.com 1.10,2013-06-26 18:38:00,
2013-06-26 14:53:00,86.1,72.0,29.83,NW,305,1.0,6.0,62,0.00,,,0.00,weatherlink.com 1.10,2013-06-26 18:53:00,
2013-06-26 15:08:00,85.9,72.0,29.83,WSW,255,0.0,5.0,64,0.00,,,0.00,weatherlink.com 1.10,2013-06-26 19:08:00,
2013-06-26 15:23:00,86.8,73.0,29.82,NW,309,0.0,5.0,63,0.00,,,0.00,weatherlink.com 1.10,2013-06-26 19:23:00,
2013-06-26 15:38:00,86.4,73.0,29.81,SW,235,0.0,5.0,64,0.00,,,0.00,weatherlink.com 1.10,2013-06-26 19:38:00,
2013-06-26 15:53:00,86.3,73.0,29.80,NW,311,6.0,6.0,64,0.00,,,0.00,weatherlink.com 1.10,2013-06-26 19:53:00,
2013-06-26 16:08:00,87.1,73.0,29.80,NW,306,0.0,7.0,63,0.00,,,0.00,weatherlink.com 1.10,2013-06-26 20:08:00,
2013-06-26 16:23:00,86.6,72.0,29.80,NW,311,1.0,6.0,61,0.00,,,0.00,weatherlink.com 1.10,2013-06-26 20:23:00,
2013-06-26 16:38:00,86.9,72.0,29.80,West,277,3.0,6.0,61,0.00,,,0.00,weatherlink.com 1.10,2013-06-26 20:38:00,
2013-06-26 16:53:00,86.5,72.0,29.79,NW,312,0.0,3.0,63,0.00,,,0.00,weatherlink.com 1.10,2013-06-26 20:53:00,
2013-06-26 17:08:00,85.7,74.0,29.79,NW,312,0.0,1.0,67,0.00,,,0.00,weatherlink.com 1.10,2013-06-26 21:08:00,
2013-06-26 17:23:00,85.2,73.0,29.79,NNE,17,0.0,5.0,66,0.00,,,0.00,weatherlink.com 1.10,2013-06-26 21:23:00,
2013-06-26 17:38:00,83.5,72.0,29.79,NW,310,0.0,2.0,68,0.00,,,0.00,weatherlink.com 1.10,2013-06-26 21:38:00,
2013-06-26 17:53:00,82.5,72.0,29.79,NW,310,0.0,1.0,71,0.00,,,0.00,weatherlink.com 1.10,2013-06-26 21:53:00,
2013-06-26 18:08:00,81.4,73.0,29.78,NW,310,0.0,1.0,76,0.00,,,0.00,weatherlink.com 1.10,2013-06-26 22:08:00,
2013-06-26 18:23:00,80.9,73.0,29.79,NW,310,0.0,0.0,76,0.00,,,0.00,weatherlink.com 1.10,2013-06-26 22:23:00,
2013-06-26 18:38:00,80.0,73.0,29.80,NW,310,0.0,2.0,80,0.01,,,0.01,weatherlink.com 1.10,2013-06-26 22:38:00,
2013-06-26 18:53:00,79.2,74.0,29.80,NW,310,0.0,1.0,84,0.02,,,0.02,weatherlink.com 1.10,2013-06-26 22:53:00,
2013-06-26 19:08:00,78.3,74.0,29.81,SSW,197,0.0,2.0,85,0.02,,,0.02,weatherlink.com 1.10,2013-06-26 23:08:00,
2013-06-26 19:23:00,77.1,73.0,29.81,SW,225,0.0,5.0,86,0.02,,,0.02,weatherlink.com 1.10,2013-06-26 23:23:00,
2013-06-26 19:38:00,76.1,72.0,29.81,NW,305,0.0,4.0,87,0.01,,,0.02,weatherlink.com 1.10,2013-06-26 23:38:00,
2013-06-26 19:53:00,76.1,72.0,29.81,NW,305,0.0,1.0,87,0.00,,,0.02,weatherlink.com 1.10,2013-06-26 23:53:00,
2013-06-26 20:08:00,75.2,71.0,29.81,NW,325,0.0,1.0,87,0.00,,,0.02,weatherlink.com 1.10,2013-06-27 00:08:00,
2013-06-26 20:23:00,74.8,71.0,29.80,NW,325,0.0,0.0,88,0.00,,,0.02,weatherlink.com 1.10,2013-06-27 00:23:00,
2013-06-26 20:38:00,74.3,71.0,29.81,NW,325,0.0,0.0,90,0.00,,,0.02,weatherlink.com 1.10,2013-06-27 00:38:00,
2013-06-26 20:53:00,73.8,71.0,29.82,SW,233,0.0,4.0,91,0.00,,,0.02,weatherlink.com 1.10,2013-06-27 00:53:00,
2013-06-26 21:08:00,73.3,71.0,29.82,SW,233,0.0,1.0,92,0.00,,,0.02,weatherlink.com 1.10,2013-06-27 01:08:00,
2013-06-26 21:23:00,72.9,71.0,29.83,SW,233,0.0,1.0,92,0.00,,,0.02,weatherlink.com 1.10,2013-06-27 01:23:00,
2013-06-26 21:38:00,72.6,71.0,29.83,SW,233,0.0,0.0,93,0.01,,,0.03,weatherlink.com 1.10,2013-06-27 01:38:00,
2013-06-26 21:53:00,72.4,71.0,29.83,SW,233,0.0,0.0,94,0.01,,,0.03,weatherlink.com 1.10,2013-06-27 01:53:00,
2013-06-26 22:08:00,72.2,70.0,29.83,SW,233,0.0,0.0,94,0.01,,,0.03,weatherlink.com 1.10,2013-06-27 02:08:00,
2013-06-26 22:23:00,72.0,70.0,29.83,SW,233,0.0,0.0,94,0.01,,,0.03,weatherlink.com 1.10,2013-06-27 02:23:00,
2013-06-26 22:38:00,71.9,71.0,29.82,SW,233,0.0,0.0,95,0.00,,,0.03,weatherlink.com 1.10,2013-06-27 02:38:00,
2013-06-26 22:53:00,71.7,70.0,29.82,SW,232,0.0,0.0,95,0.00,,,0.03,weatherlink.com 1.10,2013-06-27 02:53:00,
2013-06-26 23:08:00,71.5,70.0,29.82,SW,233,0.0,0.0,96,0.00,,,0.03,weatherlink.com 1.10,2013-06-27 03:08:00,
2013-06-26 23:23:00,71.3,70.0,29.82,SW,233,0.0,0.0,96,0.00,,,0.03,weatherlink.com 1.10,2013-06-27 03:23:00,
2013-06-26 23:38:00,71.1,70.0,29.82,SW,233,0.0,0.0,96,0.00,,,0.03,weatherlink.com 1.10,2013-06-27 03:38:00,
2013-06-26 23:53:00,71.0,70.0,29.82,SW,233,0.0,0.0,97,0.00,,,0.03,weatherlink.com 1.10,2013-06-27 03:53:00,